Time;durP1;ratioP1;P1;durP2;ratioP2;P2;SDS_P1;SDS_P2;PMS_P1;PMS_P2;Temp;Humidity;BMP_temperature;BMP_pressure;BME280_temperature;BME280_humidity;BME280_pressure;Samples;Min_cycle;Max_cycle;Signal;HPM_P1;HPM_P2
2022/08/04 07:45:57;;;;;;;;;;;;;;;13.55;100.00;99325.06;6195805;22;20017;-87
2022/08/04 07:51:41;;;;;;;;;;;;;;;13.43;100.00;99316.03;6230558;23;19911;-88
2022/08/04 07:54:08;;;;;;;;;;;;;;;13.39;100.00;99324.31;6216465;23;19922;-87
2022/08/04 07:56:47;;;;;;;;;;;;;;;13.52;100.00;99325.25;6218085;23;19986;-87
2022/08/04 07:59:15;;;;;;;;;;;;;;;13.58;100.00;99319.53;6242973;23;19969;-88
2022/08/04 08:01:43;;;;;;;;;;;;;;;13.50;100.00;99320.97;6216877;23;20343;-88
2022/08/04 08:04:09;;;;;;;;;;;;;;;13.47;100.00;99324.69;6217762;23;20290;-87
2022/08/04 08:06:39;;;;;;;;;;;;;;;13.54;100.00;99327.81;6216926;23;20407;-88
2022/08/04 08:09:07;;;;;;;;;;;;;;;13.74;100.00;99315.94;6218957;23;20271;-88
2022/08/04 08:11:33;;;;;;;;;;;;;;;13.57;100.00;99322.31;6244077;23;19911;-88
2022/08/04 08:13:58;;;;;;;;;;;;;;;13.41;100.00;99327.72;6246266;23;19915;-88
2022/08/04 08:16:42;;;;;;;;;;;;;;;13.50;100.00;99319.16;6217715;23;19907;-87
2022/08/04 08:21:32;;;;;;;;;;;;;;;13.51;100.00;99320.88;6233948;22;20276;-88
2022/08/04 08:27:09;;;;;;;;;;;;;;;13.32;100.00;99306.97;6122518;23;19980;-88
2022/08/04 08:29:36;;;;;;;;;;;;;;;13.26;100.00;99311.72;6218652;23;19946;-88
2022/08/04 08:32:06;;;;;;;;;;;;;;;13.56;100.00;99309.94;6217236;23;19911;-88
2022/08/04 08:34:42;;;;;;;;;;;;;;;;;;;;;
2022/08/04 08:37:26;;;;;;;;;;;;;;;13.38;100.00;99311.94;6245703;23;20002;-88
2022/08/04 08:43:22;;;;;;;;;;;;;;;13.49;100.00;99314.78;6239236;22;20347;-87
2022/08/04 08:46:07;;;;;;;;;;;;;;;13.46;100.00;99311.47;6241080;23;19990;-88
2022/08/04 08:48:58;;;;;;;;;;;;;;;13.63;100.00;99312.13;6243908;23;19919;-88
2022/08/04 08:51:52;;;;;;;;;;;;;;;;;;;;;
2022/08/04 08:54:36;;;;;;;;;;;;;;;13.59;100.00;99299.09;6245330;23;19998;-88
2022/08/04 08:57:14;;;;;;;;;;;;;;;13.55;100.00;99314.41;6245652;23;20147;-87
2022/08/04 08:59:39;;;;;;;;;;;;;;;13.55;100.00;99311.75;6243889;23;19919;-87
2022/08/04 09:02:23;;;;;;;;;;;;;;;13.77;100.00;99310.41;6242478;23;19958;-88
2022/08/04 09:05:15;;;;;;;;;;;;;;;13.68;100.00;99303.84;6243741;23;19920;-88
2022/08/04 09:07:47;;;;;;;;;;;;;;;13.58;100.00;99308.06;6237913;23;19947;-89
2022/08/04 09:10:36;;;;;;;;;;;;;;;13.45;100.00;99305.31;6245094;23;19912;-88
2022/08/04 09:13:05;;;;;;;;;;;;;;;13.54;100.00;99298.53;6245203;23;19942;-87
2022/08/04 09:16:10;;;;;;;;;;;;;;;13.72;100.00;99297.38;6242262;23;20398;-87
2022/08/04 09:18:41;;;;;;;;;;;;;;;13.75;100.00;99302.53;6243599;23;19960;-88
2022/08/04 09:21:09;;;;;;;;;;;;;;;13.61;100.00;99300.72;6244053;23;20228;-89
2022/08/04 09:27:30;;;;;;;;;;;;;;;13.50;100.00;99318.28;6229163;23;19912;-88
2022/08/04 09:30:01;;;;;;;;;;;;;;;13.57;100.00;99315.16;6208099;23;19911;-89
2022/08/04 09:35:47;;;;;;;;;;;;;;;13.73;100.00;99311.53;6218964;22;20026;-89
2022/08/04 09:38:18;;;;;;;;;;;;;;;13.65;100.00;99308.50;6243949;23;19916;-87
2022/08/04 09:41:04;;;;;;;;;;;;;;;13.56;100.00;99304.59;6245344;23;19998;-90
2022/08/04 09:43:55;;;;;;;;;;;;;;;13.80;100.00;99305.72;6243892;23;19926;-90
2022/08/04 09:46:39;;;;;;;;;;;;;;;13.91;100.00;99305.06;6243524;23;19911;-86
2022/08/04 09:49:16;;;;;;;;;;;;;;;13.72;100.00;99296.50;6244987;23;19935;-88
2022/08/04 09:51:49;;;;;;;;;;;;;;;17.24;100.00;99286.81;6245080;23;19912;-89
2022/08/04 10:11:46;;;;;;;;;;;;;;;13.91;100.00;99282.88;6244326;22;19930;-92
2022/08/04 10:19:55;;;;;;;;;;;;;;;13.94;100.00;99272.88;6245374;23;19918;-93
2022/08/04 10:25:07;;;;;;;;;;;;;;;14.03;100.00;99274.09;6220846;22;19928;-92
2022/08/04 10:27:35;;;;;;;;;;;;;;;14.10;100.00;99269.22;6220697;23;19911;-91
2022/08/04 10:30:10;;;;;;;;;;;;;;;13.89;100.00;99267.00;6205511;23;19912;-91
2022/08/04 10:32:59;;;;;;;;;;;;;;;13.87;100.00;99268.06;6190088;23;19927;-92
2022/08/04 10:44:22;;;;;;;;;;;;;;;13.91;100.00;99259.78;6229390;22;19927;-90
2022/08/04 10:49:58;;;;;;;;;;;;;;;13.88;100.00;99251.13;6217611;22;20268;-90
2022/08/04 10:55:12;;;;;;;;;;;;;;;13.97;100.00;99250.53;6213553;22;19931;-91
2022/08/04 11:00:44;;;;;;;;;;;;;;;13.74;100.00;99257.34;6237715;22;19973;-92
2022/08/04 11:08:34;;;;;;;;;;;;;;;13.88;100.00;99237.78;6247121;23;19924;-90
2022/08/04 11:35:51;;;;;;;;;;;;;;;14.10;100.00;99218.59;6185946;22;20244;-94
2022/08/04 11:44:00;;;;;;;;;;;;;;;13.93;100.00;99217.06;6225551;22;19978;-91
2022/08/04 19:24:41;;;;;;;;;;;;;;;13.59;100.00;99171.34;6200638;22;20354;-93
2022/08/04 19:45:59;;;;;;;;;;;;;;;13.76;100.00;99212.84;6239535;22;19999;-92
2022/08/04 20:14:28;;;;;;;;;;;;;;;;;;;;;
2022/08/04 20:19:56;;;;;;;;;;;;;;;16.92;100.00;99232.31;6231793;22;20248;-88
2022/08/04 20:22:22;;;;;;;;;;;;;;;15.95;100.00;99237.78;6214812;23;19916;-91
2022/08/04 20:24:47;;;;;;;;;;;;;;;14.50;100.00;99253.22;6218578;23;19916;-91
2022/08/04 20:27:14;;;;;;;;;;;;;;;14.34;100.00;99253.41;6245041;23;19916;-90
2022/08/04 20:29:39;;;;;;;;;;;;;;;14.23;100.00;99250.59;6219598;23;19916;-93
2022/08/04 20:32:05;;;;;;;;;;;;;;;14.06;100.00;99257.06;6243788;23;19919;-91
2022/08/04 20:34:30;;;;;;;;;;;;;;;14.00;100.00;99255.66;6244330;23;19916;-90
2022/08/04 20:36:55;;;;;;;;;;;;;;;14.19;100.00;99249.97;6245605;23;19966;-90
2022/08/04 20:39:21;;;;;;;;;;;;;;;14.05;100.00;99252.69;6243733;23;19915;-90
2022/08/04 20:41:47;;;;;;;;;;;;;;;13.93;100.00;99249.88;6219001;23;19923;-89
2022/08/04 20:44:12;;;;;;;;;;;;;;;14.13;100.00;99251.22;6245269;23;19919;-92
2022/08/04 20:46:37;;;;;;;;;;;;;;;14.10;100.00;99250.56;6244045;23;19939;-91
2022/08/04 20:49:03;;;;;;;;;;;;;;;13.95;100.00;99263.94;6245823;23;20220;-89
2022/08/04 20:51:28;;;;;;;;;;;;;;;14.01;100.00;99268.03;6245893;23;19911;-92
2022/08/04 20:53:53;;;;;;;;;;;;;;;14.12;100.00;99269.97;6244875;23;19919;-91
2022/08/04 20:56:19;;;;;;;;;;;;;;;13.97;100.00;99279.81;6244715;23;19912;-88
2022/08/04 20:58:44;;;;;;;;;;;;;;;13.96;100.00;99280.75;6244569;23;19916;-89
2022/08/04 21:01:09;;;;;;;;;;;;;;;14.10;100.00;99287.84;6244381;23;20388;-88
2022/08/04 21:04:30;;;;;;;;;;;;;;;14.08;100.00;99290.63;6218395;23;19957;-91
2022/08/04 21:06:20;;;;;;;;;;;;;;;14.03;100.00;99291.91;6245626;23;19912;-90
2022/08/04 21:08:50;;;;;;;;;;;;;;;14.08;100.00;99289.78;6218333;23;19916;-88
2022/08/04 21:11:15;;;;;;;;;;;;;;;14.15;100.00;99285.75;6217192;23;19990;-89
2022/08/04 21:13:41;;;;;;;;;;;;;;;14.00;100.00;99279.63;6244881;23;19947;-90
2022/08/04 21:16:09;;;;;;;;;;;;;;;13.94;100.00;99280.84;6243978;23;20311;-89
2022/08/04 21:18:34;;;;;;;;;;;;;;;14.15;100.00;99291.06;6218137;23;19911;-89
2022/08/04 21:20:59;;;;;;;;;;;;;;;14.09;100.00;99287.00;6244906;23;19923;-92
2022/08/04 21:23:25;;;;;;;;;;;;;;;13.98;100.00;99292.19;6245479;23;19912;-90
2022/08/04 21:25:54;;;;;;;;;;;;;;;14.01;100.00;99296.44;6245131;23;19911;-91
2022/08/04 21:28:19;;;;;;;;;;;;;;;14.07;100.00;99307.59;6219044;23;19912;-92
2022/08/04 21:30:44;;;;;;;;;;;;;;;13.94;100.00;99314.63;6218026;23;19915;-89
2022/08/04 21:33:09;;;;;;;;;;;;;;;13.72;100.00;99323.13;6219449;23;19954;-89
2022/08/04 21:35:35;;;;;;;;;;;;;;;14.09;100.00;99339.44;6243708;23;19915;-92
2022/08/04 21:38:00;;;;;;;;;;;;;;;14.01;100.00;99341.72;6219283;23;19962;-92
2022/08/04 21:40:30;;;;;;;;;;;;;;;13.93;100.00;99355.56;6217426;23;19916;-89
2022/08/04 21:42:56;;;;;;;;;;;;;;;14.02;100.00;99380.72;6243391;23;19989;-89
2022/08/04 21:45:21;;;;;;;;;;;;;;;14.14;100.00;99382.63;6216732;23;19919;-92
2022/08/04 21:47:46;;;;;;;;;;;;;;;14.01;100.00;99379.91;6245000;23;19920;-92
2022/08/04 21:50:17;;;;;;;;;;;;;;;13.95;100.00;99359.81;6244867;23;20239;-90
2022/08/04 21:52:43;;;;;;;;;;;;;;;14.11;100.00;99346.38;6245353;23;19919;-89
2022/08/04 21:55:08;;;;;;;;;;;;;;;14.08;100.00;99340.38;6218430;23;19912;-94
2022/08/04 21:57:33;;;;;;;;;;;;;;;14.00;100.00;99351.53;6218466;23;19935;-92
2022/08/04 21:59:59;;;;;;;;;;;;;;;13.98;100.00;99362.28;6215967;23;19915;-90
2022/08/04 22:02:24;;;;;;;;;;;;;;;14.19;100.00;99383.19;6243735;23;19918;-90
2022/08/04 22:04:51;;;;;;;;;;;;;;;14.15;100.00;99389.66;6244937;23;19915;-90
2022/08/04 22:07:16;;;;;;;;;;;;;;;13.99;100.00;99406.63;6244256;23;19915;-91
2022/08/04 22:09:41;;;;;;;;;;;;;;;13.99;100.00;99422.59;6244394;23;19951;-92
2022/08/04 22:12:07;;;;;;;;;;;;;;;14.10;100.00;99415.72;6217840;23;19920;-89
2022/08/04 22:14:33;;;;;;;;;;;;;;;14.13;100.00;99423.53;6217986;23;19934;-92
2022/08/04 22:16:58;;;;;;;;;;;;;;;14.11;100.00;99438.75;6242465;23;19950;-92
2022/08/04 22:19:24;;;;;;;;;;;;;;;13.94;100.00;99443.31;6217596;23;19915;-91
2022/08/04 22:21:49;;;;;;;;;;;;;;;14.11;100.00;99457.41;6244915;23;20290;-88
2022/08/04 22:24:14;;;;;;;;;;;;;;;14.27;100.00;99462.63;6246664;23;19951;-89
2022/08/04 22:26:40;;;;;;;;;;;;;;;14.28;100.00;99472.31;6245507;23;20217;-89
2022/08/04 22:29:05;;;;;;;;;;;;;;;14.24;100.00;99453.00;6220294;23;19990;-93
2022/08/04 22:31:30;;;;;;;;;;;;;;;14.11;100.00;99426.28;6245182;23;19912;-91
2022/08/04 22:33:56;;;;;;;;;;;;;;;14.20;100.00;99414.22;6220499;23;20319;-89
2022/08/04 22:36:21;;;;;;;;;;;;;;;14.21;100.00;99391.06;6220215;23;19915;-90
2022/08/04 22:38:47;;;;;;;;;;;;;;;14.23;100.00;99344.75;6246819;23;19916;-87
2022/08/04 22:41:21;;;;;;;;;;;;;;;14.10;100.00;99323.34;6247012;23;19919;-90
2022/08/04 22:43:47;;;;;;;;;;;;;;;14.02;100.00;99303.50;6219861;23;19911;-92
2022/08/04 22:46:20;;;;;;;;;;;;;;;14.25;100.00;99281.53;6219704;23;19938;-90
2022/08/04 22:48:45;;;;;;;;;;;;;;;14.21;100.00;99268.50;6219515;23;19912;-88
2022/08/04 22:51:11;;;;;;;;;;;;;;;14.23;100.00;99288.78;6219361;23;19923;-91
2022/08/04 22:53:36;;;;;;;;;;;;;;;14.07;100.00;99317.34;6246713;23;19998;-92
2022/08/04 22:56:02;;;;;;;;;;;;;;;13.97;100.00;99325.94;6220357;23;19914;-92
2022/08/04 22:58:28;;;;;;;;;;;;;;;14.05;100.00;99333.44;6221626;23;19920;-92
2022/08/04 23:00:53;;;;;;;;;;;;;;;14.13;100.00;99347.13;6218865;23;19961;-92
2022/08/04 23:03:18;;;;;;;;;;;;;;;14.05;100.00;99392.03;6221306;23;19908;-92
2022/08/04 23:05:44;;;;;;;;;;;;;;;13.99;100.00;99425.28;6246136;23;19916;-93
2022/08/04 23:08:09;;;;;;;;;;;;;;;13.90;100.00;99438.31;6246120;23;20276;-91
2022/08/04 23:10:34;;;;;;;;;;;;;;;13.99;100.00;99478.53;6246883;23;19983;-91
2022/08/04 23:13:18;;;;;;;;;;;;;;;14.05;100.00;99461.31;6220031;23;19918;-90
2022/08/04 23:18:22;;;;;;;;;;;;;;;13.90;100.00;99481.75;6246978;23;20347;-87
2022/08/04 23:24:10;;;;;;;;;;;;;;;13.83;100.00;99487.56;6155159;23;19912;-93
2022/08/04 23:26:36;;;;;;;;;;;;;;;13.79;100.00;99490.41;6154266;23;19967;-92
2022/08/04 23:29:01;;;;;;;;;;;;;;;13.94;100.00;99472.63;6186729;23;19946;-93
2022/08/04 23:31:26;;;;;;;;;;;;;;;13.87;100.00;99457.13;6243649;23;19943;-89
2022/08/04 23:33:52;;;;;;;;;;;;;;;13.80;100.00;99414.03;6244675;23;20018;-90
